Time;durP1;ratioP1;P1;durP2;ratioP2;P2;SDS_P1;SDS_P2;PMS_P1;PMS_P2;Temp;Humidity;BMP_temperature;BMP_pressure;BME280_temperature;BME280_humidity;BME280_pressure;Samples;Min_cycle;Max_cycle;Signal;HPM_P1;HPM_P2
2023/04/15 00:02:17;;;;;;;7.55;4.28;;;;;;;7.78;75.50;100699.03;5084917;28;20594;-61
2023/04/15 00:04:46;;;;;;;7.75;4.35;;;;;;;7.67;76.97;100702.44;5079185;28;20024;-62
2023/04/15 00:07:12;;;;;;;7.65;4.20;;;;;;;7.69;76.09;100703.06;5076926;28;20445;-61
2023/04/15 00:09:38;;;;;;;6.30;4.25;;;;;;;7.69;76.47;100696.75;5083295;28;20016;-61
2023/04/15 00:12:04;;;;;;;7.85;4.50;;;;;;;7.64;77.30;100693.84;5082398;28;20118;-61
2023/04/15 00:14:29;;;;;;;6.95;4.07;;;;;;;7.54;78.34;100691.53;5079717;28;20372;-61
2023/04/15 00:16:56;;;;;;;7.72;4.68;;;;;;;7.56;77.61;100694.94;5076559;28;20036;-61
2023/04/15 00:19:21;;;;;;;8.38;4.68;;;;;;;7.55;77.02;100701.41;5078726;28;20041;-61
2023/04/15 00:21:47;;;;;;;8.20;4.63;;;;;;;7.56;77.35;100705.84;5079494;28;20061;-61
2023/04/15 00:24:12;;;;;;;8.07;4.68;;;;;;;7.55;77.22;100690.47;5075686;28;20027;-63
2023/04/15 00:26:37;;;;;;;8.98;4.38;;;;;;;7.55;76.67;100698.69;5075490;28;20034;-61
2023/04/15 00:29:03;;;;;;;8.52;4.38;;;;;;;7.57;76.26;100690.28;5084821;28;20080;-62
2023/04/15 00:31:30;;;;;;;7.80;4.57;;;;;;;7.57;76.26;100691.13;5067743;28;20025;-61
2023/04/15 00:33:55;;;;;;;7.40;4.68;;;;;;;7.58;76.51;100698.25;5083871;28;20028;-62
2023/04/15 00:36:21;;;;;;;6.57;4.68;;;;;;;7.59;76.46;100694.47;5085794;28;20493;-61
2023/04/15 00:38:46;;;;;;;9.35;4.57;;;;;;;7.59;76.31;100699.94;5077677;28;20028;-61
2023/04/15 00:41:12;;;;;;;7.13;4.45;;;;;;;7.59;76.10;100697.22;5069720;28;20027;-63
2023/04/15 00:43:37;;;;;;;8.82;4.53;;;;;;;7.61;75.65;100702.47;5076259;28;20040;-61
2023/04/15 00:46:04;;;;;;;8.80;4.63;;;;;;;7.61;75.82;100699.75;5081950;28;20034;-61
2023/04/15 00:48:31;;;;;;;7.35;4.82;;;;;;;7.56;76.41;100705.84;5074478;28;20039;-61
2023/04/15 00:50:56;;;;;;;7.82;4.45;;;;;;;7.51;76.94;100701.03;5074597;28;20467;-61
2023/04/15 00:53:22;;;;;;;7.93;4.95;;;;;;;7.50;76.82;100707.56;5073695;28;20115;-61
2023/04/15 00:55:47;;;;;;;7.80;5.10;;;;;;;7.47;76.57;100701.66;5078941;28;20024;-61
2023/04/15 00:58:13;;;;;;;7.40;5.20;;;;;;;7.47;76.65;100707.13;5081221;28;20032;-63
2023/04/15 01:00:39;;;;;;;7.85;4.90;;;;;;;7.46;76.93;100702.72;5074793;28;20036;-61
2023/04/15 01:03:05;;;;;;;8.52;4.85;;;;;;;7.46;76.80;100700.84;5077483;28;20024;-61
2023/04/15 01:05:30;;;;;;;7.57;4.85;;;;;;;7.43;77.17;100697.69;5079586;28;20093;-61
2023/04/15 01:07:56;;;;;;;8.13;4.90;;;;;;;7.42;77.18;100701.47;5077178;28;20032;-61
2023/04/15 01:10:21;;;;;;;7.47;5.20;;;;;;;7.39;77.50;100702.72;5078438;28;20052;-61
2023/04/15 01:12:47;;;;;;;8.25;5.15;;;;;;;7.38;77.48;100705.69;5074473;28;20024;-61
2023/04/15 01:15:12;;;;;;;9.15;5.03;;;;;;;7.36;77.86;100699.59;5047725;28;20522;-63
2023/04/15 01:17:38;;;;;;;7.10;5.05;;;;;;;7.33;77.97;100697.28;5078093;28;20031;-61
2023/04/15 01:20:04;;;;;;;7.68;5.10;;;;;;;7.31;78.66;100705.69;5075641;28;20047;-61
2023/04/15 01:22:32;;;;;;;7.10;5.07;;;;;;;7.27;78.78;100705.28;5076360;28;20039;-61
2023/04/15 01:25:09;;;;;;;7.20;5.20;;;;;;;7.28;78.31;100700.66;5081945;28;20070;-61
2023/04/15 01:27:37;;;;;;;7.75;5.18;;;;;;;7.23;78.24;100693.09;5072535;28;20152;-61
2023/04/15 01:30:04;;;;;;;8.30;5.22;;;;;;;7.15;79.08;100696.06;5077458;28;20031;-61
2023/04/15 01:32:29;;;;;;;7.32;5.10;;;;;;;7.22;78.61;100693.31;5074338;28;20016;-61
2023/04/15 01:34:55;;;;;;;8.65;5.25;;;;;;;7.22;78.56;100693.31;5080910;28;20031;-61
2023/04/15 01:37:20;;;;;;;6.97;5.18;;;;;;;7.12;79.20;100693.75;5049203;28;20026;-61
2023/04/15 01:39:46;;;;;;;7.68;5.22;;;;;;;7.07;78.94;100692.69;5078374;28;20113;-61
2023/04/15 01:42:11;;;;;;;10.70;5.32;;;;;;;6.99;79.98;100697.34;5075816;28;20020;-61
2023/04/15 01:44:36;;;;;;;8.50;5.55;;;;;;;7.02;79.64;100696.91;5075522;28;20063;-61
2023/04/15 01:47:02;;;;;;;7.63;5.38;;;;;;;6.94;79.83;100696.25;5072791;28;20650;-61
2023/04/15 01:49:27;;;;;;;8.00;5.60;;;;;;;6.85;80.99;100694.81;5073258;28;20081;-61
2023/04/15 01:51:53;;;;;;;7.25;5.20;;;;;;;6.78;81.38;100702.16;5078603;28;20390;-61
2023/04/15 01:54:18;;;;;;;7.85;5.72;;;;;;;6.70;81.95;100709.50;5073855;28;20028;-61
2023/04/15 01:56:43;;;;;;;8.88;6.03;;;;;;;6.62;82.30;100701.50;5082063;28;20039;-62
2023/04/15 01:59:08;;;;;;;8.63;5.80;;;;;;;6.58;82.72;100704.84;5064507;28;20359;-61
2023/04/15 02:01:34;;;;;;;8.50;5.82;;;;;;;6.57;82.87;100711.38;5073486;28;20044;-61
2023/04/15 02:03:59;;;;;;;7.55;5.20;;;;;;;6.75;81.14;100707.00;5081929;28;20142;-61
2023/04/15 02:06:25;;;;;;;7.68;5.50;;;;;;;6.97;80.25;100704.88;5080840;28;20029;-61
2023/04/15 02:08:50;;;;;;;7.30;5.88;;;;;;;6.82;80.58;100709.72;5079443;28;20520;-61
2023/04/15 02:11:15;;;;;;;6.55;4.60;;;;;;;6.94;79.37;100705.28;5078686;28;20131;-61
2023/04/15 02:13:41;;;;;;;7.65;5.45;;;;;;;6.52;82.16;100705.69;5081854;28;20035;-61
2023/04/15 02:16:17;;;;;;;7.10;5.72;;;;;;;6.58;82.08;100715.78;5079338;28;20107;-61
2023/04/15 02:18:46;;;;;;;7.75;6.22;;;;;;;6.66;81.82;100710.97;5079007;28;20074;-62
2023/04/15 02:21:12;;;;;;;7.93;5.97;;;;;;;6.39;83.80;100712.81;5081141;28;20052;-61
2023/04/15 02:23:37;;;;;;;8.73;6.13;;;;;;;6.34;84.51;100714.50;5077740;28;20120;-61
2023/04/15 02:26:02;;;;;;;8.77;6.07;;;;;;;6.34;85.07;100709.03;5083765;28;20412;-61
2023/04/15 02:28:28;;;;;;;7.10;5.90;;;;;;;6.37;84.96;100714.06;5063465;28;20115;-61
2023/04/15 02:30:55;;;;;;;9.90;6.38;;;;;;;6.34;85.53;100715.31;5086239;28;20024;-61
2023/04/15 02:33:21;;;;;;;7.57;6.35;;;;;;;6.31;86.09;100714.88;5079775;28;20035;-61
2023/04/15 02:35:46;;;;;;;7.85;6.18;;;;;;;6.53;84.81;100712.81;5128895;22;20086;-61
2023/04/15 02:38:13;;;;;;;7.82;6.00;;;;;;;6.34;86.33;100719.94;5086370;28;20059;-60
2023/04/15 02:40:38;;;;;;;8.43;6.30;;;;;;;6.36;86.22;100715.13;5085613;28;20031;-62
2023/04/15 02:43:05;;;;;;;7.43;6.60;;;;;;;6.29;86.79;100717.84;5085747;28;20024;-61
2023/04/15 02:45:31;;;;;;;7.43;6.10;;;;;;;6.26;87.21;100723.69;5087671;28;20059;-61
2023/04/15 02:47:56;;;;;;;7.43;5.95;;;;;;;6.28;87.10;100718.00;5087840;28;20693;-61
2023/04/15 02:50:22;;;;;;;7.18;5.55;;;;;;;6.20;87.36;100728.06;5084975;28;20485;-61
2023/04/15 02:52:48;;;;;;;8.25;6.55;;;;;;;6.29;87.00;100730.63;5085487;28;20081;-61
2023/04/15 02:55:14;;;;;;;6.85;6.07;;;;;;;6.15;88.22;100733.31;5087696;28;20416;-61
2023/04/15 02:57:40;;;;;;;7.80;6.28;;;;;;;6.29;87.06;100730.63;5086790;28;20414;-61
2023/04/15 03:00:08;;;;;;;7.20;6.20;;;;;;;6.17;88.61;100736.66;5087843;28;20043;-61
2023/04/15 03:02:37;;;;;;;;;;;;;;;6.41;84.73;100732.53;5085724;28;20474;-61
2023/04/15 03:05:03;;;;;;;8.63;6.47;;;;;;;6.15;88.08;100732.47;5088593;28;19919;-61
2023/04/15 03:07:28;;;;;;;7.90;6.07;;;;;;;6.18;87.51;100732.91;5086181;28;20040;-63
2023/04/15 03:09:54;;;;;;;8.30;6.50;;;;;;;6.10;88.15;100744.00;5086263;28;20359;-64
2023/04/15 03:12:19;;;;;;;8.23;6.75;;;;;;;6.05;88.54;100738.31;5082982;28;20028;-63
2023/04/15 03:14:44;;;;;;;9.05;6.72;;;;;;;5.99;89.37;100739.13;5084906;28;20382;-64
2023/04/15 03:17:10;;;;;;;9.18;6.60;;;;;;;6.03;89.02;100743.09;5085265;28;20039;-64
2023/04/15 03:19:35;;;;;;;8.50;6.50;;;;;;;5.95;89.67;100741.41;5087335;28;20024;-64
2023/04/15 03:22:00;;;;;;;8.10;6.57;;;;;;;5.92;90.06;100741.81;5086779;28;20381;-63
2023/04/15 03:24:27;;;;;;;8.88;6.68;;;;;;;5.92;90.34;100746.41;5085785;28;20613;-63
2023/04/15 03:26:54;;;;;;;7.90;6.75;;;;;;;5.92;89.87;100757.31;5084503;28;20031;-63
2023/04/15 03:29:19;;;;;;;8.02;6.70;;;;;;;5.87;90.48;100757.06;5087761;28;20458;-63
2023/04/15 03:31:45;;;;;;;7.68;6.13;;;;;;;5.88;90.30;100747.81;5088098;28;20081;-63
2023/04/15 03:34:10;;;;;;;8.38;6.85;;;;;;;5.87;90.40;100751.59;5086146;28;20105;-63
2023/04/15 03:36:35;;;;;;;8.25;6.70;;;;;;;5.76;91.19;100753.00;5086360;28;20390;-63
2023/04/15 03:39:01;;;;;;;9.45;6.57;;;;;;;5.83;90.30;100766.66;5086499;28;20028;-64
2023/04/15 03:41:27;;;;;;;8.55;6.60;;;;;;;5.71;91.08;100759.06;5085940;28;20081;-64
2023/04/15 03:43:52;;;;;;;7.88;6.45;;;;;;;5.81;90.74;100766.88;5087524;28;20024;-63
2023/04/15 03:46:18;;;;;;;7.63;6.65;;;;;;;5.75;91.19;100759.50;5083677;28;20020;-63
2023/04/15 03:48:43;;;;;;;7.80;6.90;;;;;;;5.63;92.46;100770.16;5084037;28;20019;-64
2023/04/15 03:51:09;;;;;;;8.23;6.47;;;;;;;5.92;90.26;100766.34;5083327;28;20359;-63
2023/04/15 03:53:34;;;;;;;8.20;6.75;;;;;;;5.73;91.69;100778.81;5083627;28;20032;-63
2023/04/15 03:55:59;;;;;;;8.55;6.65;;;;;;;5.76;91.56;100777.53;5079354;28;20100;-63
2023/04/15 03:58:25;;;;;;;9.10;6.78;;;;;;;5.52;93.12;100778.84;5082288;28;20035;-63
2023/04/15 04:00:50;;;;;;;7.93;7.00;;;;;;;5.46;93.75;100782.38;5085774;28;20056;-64
2023/04/15 04:03:16;;;;;;;8.23;7.30;;;;;;;5.49;94.19;100784.72;5086324;28;20073;-64
2023/04/15 04:05:42;;;;;;;10.20;7.18;;;;;;;5.49;94.05;100792.88;5086010;28;20032;-64
2023/04/15 04:08:08;;;;;;;8.48;7.15;;;;;;;5.42;94.71;100795.56;5086523;28;20031;-63
2023/04/15 04:10:33;;;;;;;9.45;7.57;;;;;;;5.39;95.80;100798.69;5082657;28;20463;-64
2023/04/15 04:12:58;;;;;;;9.75;7.15;;;;;;;5.40;95.70;100804.97;5077065;28;20036;-64
2023/04/15 04:15:24;;;;;;;8.18;7.03;;;;;;;5.40;95.88;100815.88;5085643;28;20437;-63
2023/04/15 04:17:50;;;;;;;8.80;7.70;;;;;;;5.42;95.49;100819.22;5085456;28;20039;-64
2023/04/15 04:20:15;;;;;;;8.13;7.03;;;;;;;5.43;96.07;100810.88;5085611;28;20078;-63
2023/04/15 04:22:40;;;;;;;9.30;7.90;;;;;;;5.50;95.67;100819.09;5083970;28;20028;-63
2023/04/15 04:25:07;;;;;;;8.85;7.45;;;;;;;5.56;95.33;100825.63;5085801;28;20078;-63
2023/04/15 04:27:33;;;;;;;9.18;7.32;;;;;;;5.46;95.61;100829.53;5086130;28;20093;-64
2023/04/15 04:29:58;;;;;;;9.30;6.78;;;;;;;5.51;95.82;100839.00;5085215;28;20455;-63
2023/04/15 04:32:23;;;;;;;8.70;7.57;;;;;;;5.39;96.43;100835.97;5082618;28;20032;-63
2023/04/15 04:34:49;;;;;;;10.07;6.68;;;;;;;5.43;96.43;100835.38;5084709;28;20047;-64
2023/04/15 04:37:14;;;;;;;7.55;6.50;;;;;;;5.54;95.56;100844.91;5077119;28;20486;-64
2023/04/15 04:39:40;;;;;;;8.32;7.05;;;;;;;5.47;95.75;100838.53;5085522;28;20028;-63
2023/04/15 04:42:05;;;;;;;9.15;8.25;;;;;;;5.41;96.27;100847.50;5082622;28;20044;-63
2023/04/15 04:44:30;;;;;;;8.98;7.53;;;;;;;5.40;96.31;100860.28;5080324;28;20370;-63
2023/04/15 04:46:55;;;;;;;9.77;7.55;;;;;;;5.34;97.20;100857.50;5081361;28;20020;-64
2023/04/15 04:49:21;;;;;;;7.78;6.82;;;;;;;5.43;96.40;100864.50;5084105;28;20039;-63
2023/04/15 04:51:47;;;;;;;9.10;6.88;;;;;;;5.61;95.37;100867.56;5085034;28;20024;-63
2023/04/15 04:54:12;;;;;;;9.05;7.32;;;;;;;5.38;96.81;100866.97;5083489;28;20031;-65
2023/04/15 04:56:38;;;;;;;8.30;7.03;;;;;;;5.39;97.08;100866.78;5084555;28;20546;-63
2023/04/15 04:59:04;;;;;;;9.38;7.68;;;;;;;5.39;97.42;100874.09;5084453;28;20028;-64
2023/04/15 05:01:29;;;;;;;8.70;7.53;;;;;;;5.32;98.10;100876.78;5083099;28;20032;-64
2023/04/15 05:03:55;;;;;;;9.52;7.55;;;;;;;5.30;98.47;100876.09;5084393;28;20040;-63
2023/04/15 05:06:20;;;;;;;9.02;7.43;;;;;;;5.24;98.86;100876.06;5083499;28;20035;-64
2023/04/15 05:08:46;;;;;;;10.05;8.00;;;;;;;5.27;99.72;100876.53;5080963;28;20489;-63
2023/04/15 05:11:12;;;;;;;9.55;7.55;;;;;;;5.29;99.64;100881.75;5082909;28;20031;-63
2023/04/15 05:13:37;;;;;;;9.25;7.57;;;;;;;5.37;98.92;100893.38;5082271;28;20063;-63
2023/04/15 05:16:04;;;;;;;8.70;7.80;;;;;;;5.40;98.80;100894.84;5081566;28;20040;-63
2023/04/15 05:18:30;;;;;;;9.68;7.07;;;;;;;5.39;99.05;100891.28;5075811;28;20020;-63
2023/04/15 05:20:55;;;;;;;11.25;8.20;;;;;;;5.43;99.49;100902.63;5076731;28;20035;-62
2023/04/15 05:23:20;;;;;;;9.38;7.93;;;;;;;5.55;98.72;100905.66;5082410;28;20038;-62
2023/04/15 05:25:46;;;;;;;9.77;8.07;;;;;;;5.53;98.79;100914.03;5081744;28;20020;-63
2023/04/15 05:28:11;;;;;;;8.93;7.20;;;;;;;5.68;98.36;100912.06;5078035;28;20046;-63
2023/04/15 05:30:36;;;;;;;9.05;7.35;;;;;;;5.81;97.70;100924.13;5082588;28;20100;-63
2023/04/15 05:33:02;;;;;;;8.90;8.00;;;;;;;5.77;98.00;100917.38;5083025;28;20028;-63
2023/04/15 05:35:28;;;;;;;9.23;8.10;;;;;;;5.80;98.17;100916.97;5084340;28;20424;-63
2023/04/15 05:37:53;;;;;;;9.55;7.22;;;;;;;5.72;98.35;100920.69;5082834;28;20036;-63
2023/04/15 05:40:19;;;;;;;8.73;7.50;;;;;;;5.90;97.14;100925.66;5084435;28;20085;-63
2023/04/15 05:42:44;;;;;;;9.60;7.82;;;;;;;5.84;97.56;100929.19;5083648;28;20402;-64
2023/04/15 05:45:10;;;;;;;8.68;7.57;;;;;;;5.82;97.60;100934.81;5084079;28;20676;-63
2023/04/15 05:47:36;;;;;;;9.35;7.35;;;;;;;5.76;98.09;100934.75;5083155;28;20062;-63
2023/04/15 05:50:02;;;;;;;7.97;6.80;;;;;;;6.01;96.21;100946.09;5079713;28;20047;-63
2023/04/15 05:52:27;;;;;;;9.05;7.38;;;;;;;5.89;97.17;100945.78;5082794;28;20047;-63
2023/04/15 05:54:53;;;;;;;8.65;7.00;;;;;;;5.88;97.45;100952.25;5079159;28;20024;-63
2023/04/15 05:57:18;;;;;;;8.70;7.32;;;;;;;5.92;97.36;100956.31;5060398;28;20032;-63
2023/04/15 05:59:43;;;;;;;9.00;8.00;;;;;;;5.97;96.80;100959.28;5082989;28;20601;-63
2023/04/15 06:02:09;;;;;;;8.98;7.13;;;;;;;6.04;96.81;100954.75;5082767;28;20127;-63
2023/04/15 06:04:35;;;;;;;8.18;6.03;;;;;;;6.13;96.19;100952.69;5083192;28;20051;-63
2023/04/15 06:07:01;;;;;;;8.75;6.95;;;;;;;6.18;95.86;100956.53;5079878;28;20020;-64
2023/04/15 06:09:27;;;;;;;9.75;8.75;;;;;;;6.14;96.74;100968.88;5080894;28;20110;-63
2023/04/15 06:11:53;;;;;;;9.50;7.53;;;;;;;6.19;96.59;100976.44;5081113;28;20475;-63
2023/04/15 06:14:18;;;;;;;8.50;7.60;;;;;;;6.31;95.96;100976.72;5081857;28;20044;-63
2023/04/15 06:16:43;;;;;;;7.13;4.80;;;;;;;6.45;94.85;100979.34;5079878;28;20452;-63
2023/04/15 06:19:09;;;;;;;10.10;7.35;;;;;;;6.49;94.93;100979.81;5081437;28;20388;-63
2023/04/15 06:21:34;;;;;;;9.18;6.68;;;;;;;6.43;96.26;100991.50;5082050;28;20024;-63
2023/04/15 06:24:00;;;;;;;10.45;8.18;;;;;;;6.56;95.65;100994.31;5082032;28;20482;-63
2023/04/15 06:26:26;;;;;;;9.52;8.43;;;;;;;6.48;97.33;100994.47;5080326;28;20126;-64
2023/04/15 06:28:51;;;;;;;10.80;8.35;;;;;;;6.47;98.28;101000.97;5082032;28;20055;-63
2023/04/15 06:31:16;;;;;;;9.25;8.00;;;;;;;6.58;97.32;101002.28;5081339;28;20139;-63
2023/04/15 06:33:42;;;;;;;9.05;8.02;;;;;;;6.76;94.86;101005.34;5076978;28;20043;-63
2023/04/15 06:36:07;;;;;;;9.82;8.25;;;;;;;6.92;94.74;101009.63;5075984;28;20037;-63
2023/04/15 06:38:32;;;;;;;6.88;5.30;;;;;;;7.18;92.23;101012.47;5081143;28;20032;-63
2023/04/15 06:40:58;;;;;;;7.72;6.70;;;;;;;7.18;92.57;101012.47;5079528;28;20088;-63
2023/04/15 06:43:23;;;;;;;8.80;6.80;;;;;;;7.41;90.87;101016.75;5080915;28;20056;-63
2023/04/15 06:45:48;;;;;;;8.60;7.70;;;;;;;7.57;91.48;101019.09;5062986;28;20023;-63
2023/04/15 06:48:14;;;;;;;10.90;8.38;;;;;;;7.77;90.39;101022.72;5081719;28;20024;-64
2023/04/15 06:50:39;;;;;;;6.72;5.95;;;;;;;8.18;87.85;101032.63;5068434;28;20020;-63
2023/04/15 06:53:05;;;;;;;8.13;6.82;;;;;;;7.99;87.77;101031.56;5077959;28;20063;-64
2023/04/15 06:55:31;;;;;;;7.38;5.07;;;;;;;8.09;88.04;101041.25;5083271;28;20051;-62
2023/04/15 06:57:56;;;;;;;9.18;7.22;;;;;;;8.14;89.07;101050.50;5087418;28;20065;-63
2023/04/15 07:00:22;;;;;;;8.45;7.60;;;;;;;8.46;86.96;101048.00;5087548;28;20040;-63
2023/04/15 07:02:47;;;;;;;6.78;4.95;;;;;;;8.75;85.17;101053.03;5090030;28;20089;-63
2023/04/15 07:05:12;;;;;;;7.05;5.68;;;;;;;8.98;85.03;101059.94;5092784;28;20055;-64
2023/04/15 07:07:38;;;;;;;7.07;5.43;;;;;;;9.30;81.35;101055.38;5090079;28;20071;-63
2023/04/15 07:10:04;;;;;;;8.63;7.32;;;;;;;9.49;82.40;101061.84;5089640;28;20336;-63
2023/04/15 07:12:29;;;;;;;6.47;4.40;;;;;;;9.87;80.42;101059.09;5088350;28;20085;-63
2023/04/15 07:14:55;;;;;;;7.25;4.93;;;;;;;10.09;77.90;101065.09;5089670;28;20020;-63
2023/04/15 07:17:20;;;;;;;8.30;7.28;;;;;;;10.11;78.54;101065.69;5082742;28;20036;-63
2023/04/15 07:19:46;;;;;;;8.32;6.28;;;;;;;10.58;78.82;101067.00;5069560;28;20112;-63
2023/04/15 07:22:12;;;;;;;7.10;6.28;;;;;;;11.41;74.86;101069.28;5069025;28;20021;-64
2023/04/15 07:24:37;;;;;;;8.45;6.82;;;;;;;11.98;71.33;101068.13;5068566;28;20032;-64
2023/04/15 07:27:03;;;;;;;7.38;4.57;;;;;;;12.42;68.44;101073.13;5068213;28;20032;-63
2023/04/15 07:29:28;;;;;;;5.85;5.00;;;;;;;12.25;67.57;101077.63;5068857;28;20034;-63
2023/04/15 07:31:55;;;;;;;5.65;4.80;;;;;;;12.08;67.53;101093.16;5068865;28;20020;-63
2023/04/15 07:34:20;;;;;;;6.95;5.35;;;;;;;11.92;69.25;101091.91;5071408;28;20028;-62
2023/04/15 07:36:49;;;;;;;7.13;5.57;;;;;;;11.70;69.16;101099.78;5067884;28;20037;-63
2023/04/15 07:39:14;;;;;;;5.90;4.28;;;;;;;11.69;70.35;101101.72;5067678;28;20024;-63
2023/04/15 07:41:40;;;;;;;7.47;5.70;;;;;;;11.69;69.92;101111.88;5067426;28;20039;-63
2023/04/15 07:44:05;;;;;;;7.18;5.75;;;;;;;11.98;68.32;101113.00;5068171;28;20032;-63
2023/04/15 07:46:30;;;;;;;8.05;5.38;;;;;;;11.78;68.49;101113.25;5068193;28;20053;-63
2023/04/15 07:48:56;;;;;;;6.90;5.10;;;;;;;11.95;67.89;101117.03;5067740;28;20048;-62
2023/04/15 07:51:21;;;;;;;8.43;6.30;;;;;;;12.04;67.74;101113.97;5068131;28;20025;-63
2023/04/15 07:53:49;;;;;;;6.72;5.78;;;;;;;12.00;67.77;101121.84;5081787;28;20032;-63
2023/04/15 07:56:14;;;;;;;6.47;5.55;;;;;;;11.96;68.88;101120.63;5080265;28;20024;-63
2023/04/15 07:58:40;;;;;;;7.47;5.95;;;;;;;11.72;69.43;101119.69;5086973;28;20544;-63
2023/04/15 08:01:05;;;;;;;5.13;3.90;;;;;;;12.06;68.29;101120.06;5077269;28;20032;-62
2023/04/15 08:03:31;;;;;;;7.32;5.80;;;;;;;11.60;70.48;101127.00;5066863;28;20394;-63
2023/04/15 08:05:57;;;;;;;7.38;5.50;;;;;;;11.78;68.79;101128.91;5079346;28;20086;-62
2023/04/15 08:08:22;;;;;;;5.90;4.55;;;;;;;11.79;69.11;101131.44;5064955;28;20024;-62
2023/04/15 08:10:48;;;;;;;6.28;4.72;;;;;;;12.06;66.26;101134.69;5073518;28;20038;-62
2023/04/15 08:13:14;;;;;;;7.22;4.80;;;;;;;11.75;68.33;101138.47;5070436;28;20064;-62
2023/04/15 08:15:39;;;;;;;4.75;3.65;;;;;;;11.93;66.56;101138.47;5076547;28;20024;-63
2023/04/15 08:18:05;;;;;;;6.07;4.43;;;;;;;11.87;68.01;101144.06;5078283;28;20651;-62
2023/04/15 08:20:30;;;;;;;5.68;4.50;;;;;;;12.08;65.62;101139.97;5079096;28;20044;-63
2023/04/15 08:22:55;;;;;;;5.30;4.18;;;;;;;12.10;67.51;101146.91;5067081;28;20032;-63
2023/04/15 08:25:21;;;;;;;4.65;3.42;;;;;;;12.29;65.15;101155.97;5082748;28;20032;-62
2023/04/15 08:27:46;;;;;;;5.07;3.75;;;;;;;12.26;63.25;101153.66;5064677;28;20024;-63
2023/04/15 08:30:13;;;;;;;4.88;3.80;;;;;;;11.99;65.01;101166.97;5066051;28;20103;-63
2023/04/15 08:32:38;;;;;;;3.63;3.22;;;;;;;12.48;64.43;101167.75;5076299;28;20044;-63
2023/04/15 08:35:04;;;;;;;4.55;3.30;;;;;;;13.16;58.78;101152.59;5069580;28;20048;-63
2023/04/15 08:37:29;;;;;;;4.88;3.50;;;;;;;12.98;59.49;101168.22;5068959;28;20034;-62
2023/04/15 08:39:55;;;;;;;5.63;3.88;;;;;;;12.98;61.46;101182.00;5084498;28;20104;-63
2023/04/15 08:42:30;;;;;;;5.05;3.88;;;;;;;13.12;59.45;101190.00;5070979;28;20028;-63
2023/04/15 08:44:56;;;;;;;4.97;3.80;;;;;;;13.70;59.32;101189.19;5065555;28;20024;-63
2023/04/15 08:47:26;;;;;;;5.32;3.80;;;;;;;14.16;55.35;101196.47;5065143;28;20108;-62
2023/04/15 08:49:54;;;;;;;5.35;3.60;;;;;;;14.12;55.71;101205.50;5065235;28;20051;-63
2023/04/15 08:52:20;;;;;;;5.63;3.30;;;;;;;14.08;54.70;101209.84;5046513;28;20021;-63
2023/04/15 08:54:46;;;;;;;4.03;2.92;;;;;;;13.87;55.34;101205.81;5047523;28;20131;-63
2023/04/15 08:57:13;;;;;;;5.65;4.30;;;;;;;13.87;57.46;101214.09;5064551;28;20051;-63
2023/04/15 08:59:40;;;;;;;5.80;4.38;;;;;;;14.38;55.22;101210.44;5065840;28;20036;-63
2023/04/15 09:02:07;;;;;;;6.40;4.00;;;;;;;14.83;54.41;101220.69;5078276;28;20444;-63
2023/04/15 09:04:32;;;;;;;6.80;4.47;;;;;;;15.72;51.70;101222.69;5078523;28;20513;-63
2023/04/15 09:06:58;;;;;;;5.25;4.10;;;;;;;16.87;51.00;101226.22;5085183;28;20064;-64
2023/04/15 09:09:23;;;;;;;4.57;3.20;;;;;;;17.28;47.80;101227.41;5084605;28;20111;-63
2023/04/15 09:11:50;;;;;;;5.22;3.55;;;;;;;16.95;46.83;101234.09;5084003;28;20634;-63
2023/04/15 09:14:15;;;;;;;5.55;3.97;;;;;;;16.89;48.05;101235.16;5085463;28;20060;-63
2023/04/15 09:17:01;;;;;;;5.03;3.15;;;;;;;17.36;45.70;101245.50;5087230;28;20502;-63
2023/04/15 09:19:27;;;;;;;3.67;2.72;;;;;;;17.25;45.84;101243.78;5082369;28;20032;-64
2023/04/15 09:21:55;;;;;;;3.47;2.55;;;;;;;17.32;44.38;101255.47;5083549;28;20089;-63
2023/04/15 09:24:21;;;;;;;;;;;;;;;17.07;43.72;101256.09;5086901;28;20028;-63
2023/04/15 09:26:46;;;;;;;3.40;2.45;;;;;;;16.72;45.49;101262.16;5065024;28;19965;-63
2023/04/15 09:29:14;;;;;;;3.97;2.80;;;;;;;15.73;47.54;101272.25;5066125;28;20509;-64
2023/04/15 09:31:41;;;;;;;2.90;2.40;;;;;;;15.56;48.42;101271.41;5066708;28;20124;-62
2023/04/15 09:34:06;;;;;;;4.40;3.28;;;;;;;15.77;51.49;101267.06;5066224;28;20083;-63
2023/04/15 09:36:47;;;;;;;3.88;3.20;;;;;;;16.85;50.70;101267.28;5065856;28;20130;-63
2023/04/15 09:39:13;;;;;;;3.83;3.10;;;;;;;18.03;46.29;101261.50;5077956;28;20553;-64
2023/04/15 09:41:39;;;;;;;5.20;3.03;;;;;;;18.55;43.89;101276.44;5065212;28;20025;-63
2023/04/15 09:44:05;;;;;;;3.83;2.92;;;;;;;19.41;43.59;101270.19;5066389;28;20025;-63
2023/04/15 09:46:43;;;;;;;3.92;3.30;;;;;;;19.90;43.02;101272.38;5065628;28;20170;-64
2023/04/15 09:49:11;;;;;;;4.55;2.72;;;;;;;20.09;39.02;101270.66;5066633;28;20113;-63
2023/04/15 09:51:36;;;;;;;3.97;2.63;;;;;;;20.79;39.89;101273.41;5066005;28;20062;-63
2023/04/15 09:54:02;;;;;;;4.88;2.40;;;;;;;20.79;37.27;101290.16;5065633;28;20064;-63
2023/04/15 09:56:35;;;;;;;4.10;2.67;;;;;;;20.64;41.75;101287.47;5079186;28;20394;-63
2023/04/15 09:59:00;;;;;;;3.00;2.33;;;;;;;20.04;38.24;101284.59;5079463;28;20077;-63
2023/04/15 10:01:26;;;;;;;3.25;2.17;;;;;;;19.85;39.59;101286.31;5084580;28;20016;-63
2023/04/15 10:03:54;;;;;;;4.97;3.30;;;;;;;19.47;41.62;101287.75;5086500;28;20186;-65
2023/04/15 10:06:22;;;;;;;5.35;2.85;;;;;;;19.74;41.38;101285.50;5086678;28;20024;-63
2023/04/15 10:08:48;;;;;;;3.67;2.72;;;;;;;19.67;40.67;101296.97;5086244;28;20043;-64
2023/04/15 10:11:13;;;;;;;3.60;2.70;;;;;;;19.17;41.63;101298.59;5085227;28;20641;-63
2023/04/15 10:13:39;;;;;;;3.50;2.53;;;;;;;19.16;43.30;101296.13;5066412;28;20034;-63
2023/04/15 10:16:15;;;;;;;3.35;2.28;;;;;;;19.48;42.44;101292.22;5077876;28;20162;-63
2023/04/15 10:18:47;;;;;;;4.53;2.75;;;;;;;18.87;42.39;101301.34;5086736;28;20027;-63
2023/04/15 10:21:17;;;;;;;3.40;2.50;;;;;;;19.28;43.25;101293.03;5086292;28;20024;-65
2023/04/15 10:23:42;;;;;;;2.97;2.00;;;;;;;19.35;40.42;101299.16;5086075;28;20020;-65
2023/04/15 10:26:11;;;;;;;2.03;1.48;;;;;;;19.48;41.78;101297.78;5086475;28;20026;-63
2023/04/15 10:28:36;;;;;;;2.65;1.60;;;;;;;19.82;38.82;101293.31;5090033;28;20035;-63
2023/04/15 10:31:04;;;;;;;2.67;1.45;;;;;;;20.31;38.35;101300.13;5090567;28;20830;-63
2023/04/15 10:33:30;;;;;;;2.42;1.73;;;;;;;20.17;36.47;101306.34;5089648;28;20115;-63
2023/04/15 10:35:56;;;;;;;3.80;2.15;;;;;;;19.87;38.16;101307.25;5065918;28;20066;-64
2023/04/15 10:38:37;;;;;;;3.05;1.45;;;;;;;20.47;36.80;101312.91;5051222;28;20072;-63
2023/04/15 10:41:25;;;;;;;3.45;1.83;;;;;;;21.35;37.56;101320.53;5069407;28;20876;-63
2023/04/15 10:44:01;;;;;;;3.00;2.05;;;;;;;22.39;36.19;101306.06;5070065;28;20371;-63
2023/04/15 10:46:38;;;;;;;3.45;2.35;;;;;;;23.07;35.38;101304.88;5069567;28;20112;-63
2023/04/15 10:49:23;;;;;;;3.33;2.30;;;;;;;23.26;35.74;101314.06;5070028;28;20033;-64
2023/04/15 10:51:57;;;;;;;3.15;2.00;;;;;;;22.81;34.76;101310.00;5069179;28;20028;-63
2023/04/15 10:54:25;;;;;;;2.72;2.20;;;;;;;22.64;33.68;101313.28;5065739;28;20438;-63
2023/04/15 10:57:06;;;;;;;3.60;2.22;;;;;;;22.48;35.66;101317.44;5089055;28;20077;-63
2023/04/15 10:59:34;;;;;;;3.60;2.17;;;;;;;22.36;36.01;101323.47;5085707;28;20538;-63
2023/04/15 11:02:07;;;;;;;3.00;2.25;;;;;;;21.55;36.00;101325.13;5081333;28;20435;-63
2023/04/15 11:05:00;;;;;;;3.38;2.42;;;;;;;21.60;37.60;101332.63;5067895;28;20105;-63
2023/04/15 11:07:51;;;;;;;3.67;2.67;;;;;;;21.84;37.03;101327.06;5067984;28;20028;-63
2023/04/15 11:10:16;;;;;;;2.78;2.20;;;;;;;21.01;37.58;101323.25;5083249;28;20039;-63
2023/04/15 11:12:43;;;;;;;3.13;2.40;;;;;;;21.04;37.91;101333.00;5085765;28;20048;-64
2023/04/15 11:15:37;;;;;;;2.80;2.50;;;;;;;21.44;38.78;101334.69;5087327;28;20489;-64
2023/04/15 11:18:12;;;;;;;2.60;2.17;;;;;;;21.33;40.04;101324.72;5084336;28;20036;-64
2023/04/15 11:20:39;;;;;;;2.97;2.20;;;;;;;20.98;38.26;101321.00;5068679;28;20036;-63
2023/04/15 11:23:05;;;;;;;2.67;1.73;;;;;;;20.44;40.46;101317.09;5082951;28;20036;-63
2023/04/15 11:25:32;;;;;;;3.83;2.05;;;;;;;19.10;41.64;101330.59;5078545;28;20031;-63
2023/04/15 11:27:59;;;;;;;2.20;2.00;;;;;;;18.45;45.64;101329.25;5085522;28;20031;-63
2023/04/15 11:30:27;;;;;;;2.20;1.55;;;;;;;17.85;44.79;101339.78;5086181;28;20118;-63